Time;durP1;ratioP1;P1;durP2;ratioP2;P2;SDS_P1;SDS_P2;PMS_P1;PMS_P2;Temp;Humidity;BMP_temperature;BMP_pressure;BME280_temperature;BME280_humidity;BME280_pressure;Samples;Min_cycle;Max_cycle;Signal;HPM_P1;HPM_P2
2021/07/11 00:02:14;;;;;;;;;12.50;11.25;;;;;18.19;71.07;101373.31;5058700;28;45548;-96
2021/07/11 00:04:40;;;;;;;;;16.75;16.75;;;;;18.38;70.56;101388.00;5058004;28;45432;-96
2021/07/11 00:07:06;;;;;;;;;16.50;16.00;;;;;18.01;70.43;101333.16;5058188;28;44849;-96
2021/07/11 00:09:31;;;;;;;;;16.00;16.00;;;;;18.34;70.66;101391.97;5057204;28;47182;-96
2021/07/11 00:11:57;;;;;;;;;17.50;14.75;;;;;18.06;70.70;101331.91;5057611;28;45412;-94
2021/07/11 00:14:22;;;;;;;;;16.50;14.00;;;;;18.39;70.57;101379.69;5057729;28;45398;-95
2021/07/11 00:16:48;;;;;;;;;12.25;11.00;;;;;18.23;70.35;101353.03;5057880;28;45555;-96
2021/07/11 00:19:14;;;;;;;;;8.25;8.25;;;;;18.38;71.07;101388.00;5057495;28;46616;-96
2021/07/11 00:21:39;;;;;;;;;14.50;10.75;;;;;18.51;71.01;101395.91;5057328;28;45429;-95
2021/07/11 00:24:06;;;;;;;;;8.00;6.50;;;;;18.07;70.57;101315.44;5057740;28;45246;-96
2021/07/11 00:26:32;;;;;;;;;9.00;8.75;;;;;18.84;71.09;101442.88;5057763;28;45361;-95
2021/07/11 00:28:57;;;;;;;;;6.25;6.25;;;;;18.25;70.87;101361.88;5057370;28;47637;-93
2021/07/11 00:31:31;;;;;;;;;6.50;4.00;;;;;18.09;70.94;101324.31;5059505;28;45258;-96
2021/07/11 00:34:01;;;;;;;;;4.50;4.50;;;;;18.25;70.84;101339.28;5068113;28;45530;-96
2021/07/11 00:36:26;;;;;;;;;3.25;3.25;;;;;18.23;70.62;101330.41;5058716;28;45553;-96
2021/07/11 00:38:52;;;;;;;;;2.00;2.00;;;;;18.38;70.77;101366.25;5058506;28;46621;-95
2021/07/11 00:41:21;;;;;;;;;4.00;2.25;;;;;17.95;70.81;101298.34;5059522;28;45447;-94
2021/07/11 00:43:46;;;;;;;;;2.75;2.75;;;;;17.96;70.74;101294.63;5060836;28;45305;-95
2021/07/11 00:46:12;;;;;;;;;4.00;4.00;;;;;17.90;70.87;101270.72;5060107;28;44832;-95
2021/07/11 00:48:39;;;;;;;;;1.25;1.25;;;;;17.87;71.13;101273.69;5055617;28;46725;-96
2021/07/11 00:51:05;;;;;;;;;4.00;3.00;;;;;18.63;71.02;101398.44;5039263;28;45279;-96
2021/07/11 00:53:30;;;;;;;;;3.00;2.00;;;;;18.43;71.18;101358.53;5040398;28;45593;-96
2021/07/11 00:55:56;;;;;;;;;2.50;2.50;;;;;18.77;71.33;101421.66;5038205;28;45429;-95
2021/07/11 00:58:22;;;;;;;;;2.75;2.75;;;;;18.08;71.10;101292.72;5039656;28;46630;-96
2021/07/11 01:00:54;;;;;;;;;2.00;1.50;;;;;17.98;70.82;101279.06;5038463;28;45433;-96
2021/07/11 01:03:41;;;;;;;;;3.50;2.00;;;;;18.01;70.92;101272.53;5040310;28;45180;-95
2021/07/11 01:06:08;;;;;;;;;2.00;2.00;;;;;18.05;70.52;101297.56;5039305;28;45461;-95
2021/07/11 01:08:43;;;;;;;;;2.75;1.50;;;;;18.39;70.70;101354.34;5039242;28;46894;-96
2021/07/11 01:11:10;;;;;;;;;2.00;2.00;;;;;18.01;70.99;101288.84;5039042;28;45399;-96
2021/07/11 01:13:38;;;;;;;;;2.50;1.00;;;;;18.55;70.73;101373.75;5038785;28;45367;-95
2021/07/11 01:16:12;;;;;;;;;2.25;2.25;;;;;18.56;71.23;101364.59;5038170;28;45404;-95
2021/07/11 01:18:39;;;;;;;;;1.75;1.75;;;;;18.01;71.28;101281.53;5038038;28;47304;-94
2021/07/11 01:21:21;;;;;;;;;1.00;1.00;;;;;18.84;70.78;101424.69;5038667;28;45243;-96
2021/07/11 01:24:05;;;;;;;;;1.00;1.00;;;;;18.27;70.91;101335.44;5038695;28;45271;-95
2021/07/11 01:26:33;;;;;;;;;1.50;1.00;;;;;17.84;70.90;101253.13;5038523;28;44868;-96
2021/07/11 01:28:59;;;;;;;;;1.00;1.00;;;;;17.82;71.37;101252.38;5038711;28;46711;-94
2021/07/11 01:31:26;;;;;;;;;3.00;1.00;;;;;17.79;71.31;101252.66;5038189;28;45239;-96
2021/07/11 01:33:53;;;;;;;;;1.50;1.50;;;;;17.88;70.95;101272.72;5038379;28;44845;-95
2021/07/11 01:36:21;;;;;;;;;1.00;1.00;;;;;17.80;70.99;101261.66;5038293;28;44885;-96
2021/07/11 01:38:48;;;;;;;;;2.00;2.00;;;;;17.83;71.06;101264.97;5038329;28;46984;-95
2021/07/11 01:41:17;;;;;;;;;2.00;2.00;;;;;17.87;71.35;101281.84;5056087;28;45410;-96
2021/07/11 01:43:51;;;;;;;;;2.00;2.00;;;;;18.28;71.30;101339.88;5076385;27;45467;-95
2021/07/11 01:46:17;;;;;;;;;2.00;2.00;;;;;17.79;71.49;101266.22;5058029;28;45464;-96
2021/07/11 01:48:43;;;;;;;;;1.50;1.00;;;;;17.89;71.04;101279.00;5057532;28;46860;-96
2021/07/11 01:51:12;;;;;;;;;1.00;1.00;;;;;17.78;70.94;101247.34;5057760;28;45411;-95
2021/07/11 01:53:47;;;;;;;;;2.00;2.00;;;;;18.27;71.24;101335.44;5058390;28;45286;-94
2021/07/11 01:56:17;;;;;;;;;1.00;1.00;;;;;18.30;71.22;101347.91;5058047;28;45267;-95
2021/07/11 01:58:43;;;;;;;;;2.00;2.00;;;;;17.67;70.98;101248.28;5057957;28;47066;-95
2021/07/11 02:01:15;;;;;;;;;2.00;2.00;;;;;17.65;71.44;101237.56;5057841;28;45751;-95
2021/07/11 02:03:44;;;;;;;;;1.00;1.00;;;;;17.66;71.28;101258.31;5058218;28;45521;-96
2021/07/11 02:06:11;;;;;;;;;0.75;0.25;;;;;18.18;71.25;101338.97;5057786;28;45415;-95
2021/07/11 02:08:38;;;;;;;;;2.00;0.75;;;;;18.14;71.18;101332.06;5063296;28;48344;-95
2021/07/11 02:11:05;;;;;;;;;1.00;1.00;;;;;17.96;71.52;101310.06;5066312;28;45474;-96
2021/07/11 02:13:38;;;;;;;;;0.25;0.25;;;;;18.05;71.34;101328.31;5079545;27;45429;-96
2021/07/11 02:16:11;;;;;;;;;1.00;1.00;;;;;18.11;71.16;101337.78;5109217;27;45483;-95
2021/07/11 02:18:40;;;;;;;;;1.00;1.00;;;;;17.49;71.28;101245.34;5126156;27;47079;-95
2021/07/11 02:21:07;;;;;;;;;1.00;1.00;;;;;17.58;71.62;101251.81;5092005;27;45475;-94
2021/07/11 02:23:35;;;;;;;;;1.75;1.75;;;;;18.04;71.62;101325.72;5103693;27;44818;-96
2021/07/11 02:26:01;;;;;;;;;0.00;0.00;;;;;17.50;71.39;101247.06;5087194;28;45270;-95
2021/07/11 02:28:32;;;;;;;;;1.50;1.50;;;;;17.25;71.30;101211.16;5098795;28;47244;-94
2021/07/11 02:31:00;;;;;;;;;1.00;1.00;;;;;17.43;71.27;101233.16;5104904;28;44959;-96
2021/07/11 02:33:37;;;;;;;;;2.25;1.25;;;;;17.79;71.43;101298.81;5099717;28;45357;-95
2021/07/11 02:36:10;;;;;;;;;2.00;2.00;;;;;17.40;71.35;101244.28;5083275;28;45250;-95
2021/07/11 02:38:49;;;;;;;;;1.00;0.00;;;;;18.00;71.85;101333.31;5099783;27;47302;-96
2021/07/11 02:41:19;;;;;;;;;1.00;1.00;;;;;17.84;72.20;101334.59;5085649;27;45573;-95
2021/07/11 02:43:47;;;;;;;;;2.50;1.00;;;;;17.97;71.75;101348.00;5062683;28;45447;-95
2021/07/11 02:46:16;;;;;;;;;1.00;1.00;;;;;17.40;71.63;101268.69;5061381;28;45278;-95
2021/07/11 02:48:44;;;;;;;;;0.25;0.25;;;;;17.44;71.99;101259.31;5061151;28;46772;-96
2021/07/11 02:51:16;;;;;;;;;1.00;1.00;;;;;17.29;71.54;101238.91;5059604;28;45415;-96
2021/07/11 02:53:44;;;;;;;;;1.00;0.75;;;;;17.36;72.14;101269.94;5060486;28;45299;-96
2021/07/11 02:56:14;;;;;;;;;1.00;1.00;;;;;17.93;72.21;101367.38;5077237;27;45308;-95
2021/07/11 02:58:42;;;;;;;;;1.25;1.25;;;;;17.29;72.00;101274.19;5059398;28;46993;-96
2021/07/11 03:01:08;;;;;;;;;0.25;0.25;;;;;17.24;72.40;101274.56;5059947;28;45860;-95
2021/07/11 03:03:35;;;;;;;;;1.00;1.00;;;;;18.06;72.51;101410.69;5060567;28;45471;-96
2021/07/11 03:06:01;;;;;;;;;1.00;1.00;;;;;17.74;72.85;101335.53;5059939;28;45575;-96
2021/07/11 03:08:27;;;;;;;;;0.50;0.50;;;;;17.82;72.94;101350.16;5059890;28;47010;-96
2021/07/11 03:10:55;;;;;;;;;3.50;1.00;;;;;17.84;72.69;101350.91;5059783;28;45254;-96
2021/07/11 03:13:21;;;;;;;;;2.75;2.00;;;;;17.33;72.66;101254.78;5058704;28;45313;-95
2021/07/11 03:15:47;;;;;;;;;1.75;1.75;;;;;17.87;72.96;101341.63;5072846;28;45553;-94
2021/07/11 03:18:14;;;;;;;;;3.00;3.00;;;;;17.92;72.42;101346.63;5078204;28;47681;-96
2021/07/11 03:20:41;;;;;;;;;1.00;1.00;;;;;18.08;73.10;101376.09;5095820;27;45563;-95
2021/07/11 03:23:07;;;;;;;;;1.00;1.00;;;;;17.92;73.07;101352.94;5095794;27;45507;-95
2021/07/11 03:25:33;;;;;;;;;0.50;0.50;;;;;17.54;73.13;101291.94;5078293;28;45638;-96
2021/07/11 03:28:04;;;;;;;;;2.25;2.25;;;;;17.26;73.11;101231.88;5078565;28;47014;-95
2021/07/11 03:30:36;;;;;;;;;2.00;2.00;;;;;17.76;73.06;101328.09;5078387;28;45321;-94
2021/07/11 03:33:05;;;;;;;;;1.50;1.50;;;;;17.83;73.37;101330.16;5078650;28;45391;-94
2021/07/11 03:35:43;;;;;;;;;2.00;2.00;;;;;18.08;72.79;101367.94;5078847;28;45250;-95
2021/07/11 03:38:14;;;;;;;;;2.00;2.00;;;;;17.86;72.57;101342.59;5077944;28;46806;-94
2021/07/11 03:40:43;;;;;;;;;2.00;2.00;;;;;17.47;72.43;101279.88;5078312;27;45667;-96
2021/07/11 03:43:14;;;;;;;;;2.25;1.75;;;;;17.64;72.58;101311.88;5071614;27;45272;-95
2021/07/11 03:45:43;;;;;;;;;1.50;1.50;;;;;17.40;72.42;101285.81;5054873;28;45357;-95
2021/07/11 03:48:13;;;;;;;;;2.00;2.00;;;;;17.43;72.44;101289.28;5057824;28;47034;-95
2021/07/11 03:50:45;;;;;;;;;3.00;2.00;;;;;17.97;72.88;101386.03;5057960;28;45559;-96
2021/07/11 03:53:11;;;;;;;;;3.00;3.00;;;;;17.44;73.00;101299.16;5057851;28;45254;-95
2021/07/11 03:55:39;;;;;;;;;1.50;1.50;;;;;17.82;72.86;101369.19;5057897;28;45546;-94
2021/07/11 03:58:08;;;;;;;;;1.00;1.00;;;;;17.45;72.67;101311.72;5074799;27;46881;-96
2021/07/11 04:00:35;;;;;;;;;1.50;1.00;;;;;17.95;73.00;101396.16;5057923;28;45221;-95
2021/07/11 04:03:04;;;;;;;;;3.50;2.25;;;;;17.83;72.97;101375.47;5057840;28;45448;-96
2021/07/11 04:05:35;;;;;;;;;2.00;2.00;;;;;17.90;72.90;101389.38;5057936;28;45340;-96
2021/07/11 04:08:03;;;;;;;;;2.00;2.00;;;;;17.96;73.22;101381.56;5074480;27;47046;-96
2021/07/11 04:10:31;;;;;;;;;3.00;2.25;;;;;17.99;73.45;101394.91;5057575;28;45761;-95
2021/07/11 04:13:00;;;;;;;;;3.25;3.00;;;;;17.78;72.97;101347.84;5057676;28;45333;-95
2021/07/11 04:15:27;;;;;;;;;4.00;3.50;;;;;17.32;72.72;101282.03;5067632;28;45444;-96
2021/07/11 04:17:57;;;;;;;;;3.00;3.00;;;;;17.49;73.17;101315.91;5077657;28;47712;-95
2021/07/11 04:20:26;;;;;;;;;5.00;3.00;;;;;17.86;73.10;101381.50;5077790;28;45581;-96
2021/07/11 04:22:55;;;;;;;;;5.00;5.00;;;;;17.90;73.06;101384.81;5077721;28;45436;-96
2021/07/11 04:25:21;;;;;;;;;2.75;2.75;;;;;17.62;73.44;101338.31;5077412;28;45441;-96
2021/07/11 04:27:53;;;;;;;;;4.00;4.00;;;;;17.64;73.49;101349.03;5077477;27;48204;-95
2021/07/11 04:30:20;;;;;;;;;4.25;3.00;;;;;17.43;73.41;101308.28;5076607;28;45852;-95
2021/07/11 04:32:46;;;;;;;;;2.25;2.25;;;;;18.22;73.37;101449.16;5077773;28;46089;-95
2021/07/11 04:35:15;;;;;;;;;3.00;3.00;;;;;17.98;73.49;101395.91;5077841;28;45616;-96
2021/07/11 04:37:40;;;;;;;;;2.00;2.00;;;;;17.94;73.79;101391.72;5077098;28;46839;-95
2021/07/11 04:40:07;;;;;;;;;4.25;3.00;;;;;17.66;73.89;101358.78;5065137;28;45862;-96
2021/07/11 04:42:32;;;;;;;;;2.00;2.00;;;;;17.65;74.12;101359.78;5037464;28;45413;-96
2021/07/11 04:45:01;;;;;;;;;2.25;2.25;;;;;17.20;74.45;101292.13;5036853;28;45465;-95
2021/07/11 04:47:27;;;;;;;;;3.50;3.00;;;;;17.36;74.51;101322.38;5040118;28;47046;-96
2021/07/11 04:49:52;;;;;;;;;2.50;2.50;;;;;17.20;74.49;101305.69;5056877;28;45576;-95
2021/07/11 04:52:18;;;;;;;;;3.00;3.00;;;;;17.67;75.06;101395.78;5056913;28;45259;-95
2021/07/11 04:54:50;;;;;;;;;2.75;2.25;;;;;17.03;74.83;101286.25;5057084;28;45237;-95
2021/07/11 04:57:15;;;;;;;;;4.00;4.00;;;;;17.39;74.76;101342.97;5056975;28;48126;-96
2021/07/11 04:59:41;;;;;;;;;4.00;4.00;;;;;17.36;75.11;101344.09;5056478;28;45723;-95
2021/07/11 05:02:06;;;;;;;;;5.00;5.00;;;;;17.16;75.19;101317.78;5057069;28;45241;-96
2021/07/11 05:04:32;;;;;;;;;5.00;4.25;;;;;17.69;75.27;101409.25;5057008;28;45670;-96
2021/07/11 05:06:58;;;;;;;;;6.00;4.25;;;;;17.47;75.40;101373.03;5056933;28;47653;-95
2021/07/11 05:09:23;;;;;;;;;5.00;5.00;;;;;17.67;75.16;101401.22;5056607;28;45327;-94
2021/07/11 05:11:49;;;;;;;;;5.00;4.50;;;;;17.61;75.23;101392.72;5056446;28;45212;-96
2021/07/11 05:14:14;;;;;;;;;6.25;5.00;;;;;17.09;74.88;101284.88;5056711;28;45250;-96
2021/07/11 05:16:41;;;;;;;;;3.50;3.50;;;;;17.82;75.09;101409.03;5056784;28;47086;-96
2021/07/11 05:19:06;;;;;;;;;6.00;6.00;;;;;17.22;74.91;101311.84;5056860;28;45757;-96
2021/07/11 05:21:33;;;;;;;;;3.25;3.25;;;;;18.09;75.07;101446.63;5056593;28;45274;-95
2021/07/11 05:23:59;;;;;;;;;5.00;3.00;;;;;17.27;75.05;101311.44;5056636;28;45584;-95
2021/07/11 05:26:25;;;;;;;;;5.00;5.00;;;;;18.12;75.51;101446.34;5073420;28;46682;-96
2021/07/11 05:28:51;;;;;;;;;4.50;3.50;;;;;17.27;75.16;101328.56;5056608;28;45300;-95
2021/07/11 05:31:17;;;;;;;;;4.50;3.50;;;;;17.32;75.12;101323.63;5056081;28;45242;-94
2021/07/11 05:33:45;;;;;;;;;6.00;5.50;;;;;17.32;75.45;101330.91;5056484;28;45409;-95
2021/07/11 05:36:11;;;;;;;;;5.25;4.75;;;;;17.24;74.97;101302.56;5056020;28;47912;-96
2021/07/11 05:38:38;;;;;;;;;3.00;3.00;;;;;17.91;75.21;101413.72;5056305;28;45916;-95
2021/07/11 05:41:07;;;;;;;;;6.25;3.50;;;;;18.25;75.04;101481.47;5055975;28;45408;-94
2021/07/11 05:43:33;;;;;;;;;3.50;3.50;;;;;17.60;75.11;101367.44;5059831;28;45580;-94
2021/07/11 05:46:00;;;;;;;;;6.75;4.50;;;;;17.32;75.24;101318.22;5063109;28;47210;-96
2021/07/11 05:48:25;;;;;;;;;4.75;4.25;;;;;17.30;75.05;101328.31;5044140;28;45434;-95
2021/07/11 05:50:51;;;;;;;;;2.75;2.75;;;;;17.97;75.13;101423.19;5039660;28;45350;-94
2021/07/11 05:53:17;;;;;;;;;3.50;3.00;;;;;18.19;74.96;101463.00;5056816;28;45479;-94
2021/07/11 05:55:43;;;;;;;;;5.50;5.00;;;;;17.43;74.61;101338.13;5056374;28;46976;-96
2021/07/11 05:58:09;;;;;;;;;5.00;4.00;;;;;17.54;74.24;101343.50;5056271;28;45666;-94
2021/07/11 06:00:35;;;;;;;;;3.50;3.50;;;;;17.80;74.07;101394.75;5056186;28;45488;-94
2021/07/11 06:03:02;;;;;;;;;4.25;3.00;;;;;17.40;74.02;101328.41;5056207;28;45315;-95
2021/07/11 06:05:27;;;;;;;;;4.00;4.00;;;;;18.05;74.16;101441.56;5056062;28;46870;-96
2021/07/11 06:07:53;;;;;;;;;3.00;3.00;;;;;17.21;74.17;101310.13;5056154;28;45270;-95
2021/07/11 06:10:18;;;;;;;;;4.00;4.00;;;;;17.65;73.86;101367.03;5056068;28;45168;-94
2021/07/11 06:12:44;;;;;;;;;5.50;4.00;;;;;17.84;74.31;101398.91;5056202;28;45389;-96
2021/07/11 06:15:11;;;;;;;;;4.50;4.50;;;;;17.60;73.59;101355.72;5038946;28;46889;-96
2021/07/11 06:17:37;;;;;;;;;3.00;3.00;;;;;18.00;74.15;101426.53;5058892;28;45551;-95
2021/07/11 06:20:09;;;;;;;;;5.00;5.00;;;;;18.38;74.09;101491.31;5042867;28;45311;-96
2021/07/11 06:22:35;;;;;;;;;4.75;4.75;;;;;18.01;74.24;101416.53;5076077;28;45214;-94
2021/07/11 06:25:06;;;;;;;;;4.00;4.00;;;;;18.16;73.36;101438.78;5081676;28;46917;-95
2021/07/11 06:27:36;;;;;;;;;5.00;4.00;;;;;17.84;72.70;101383.50;5073742;28;45204;-94
2021/07/11 06:30:09;;;;;;;;;3.75;3.75;;;;;17.55;72.83;101335.25;5039388;28;45314;-95
2021/07/11 06:32:35;;;;;;;;;5.25;3.00;;;;;17.57;73.26;101340.53;5055775;28;45182;-95
2021/07/11 06:35:05;;;;;;;;;3.00;3.00;;;;;17.56;72.70;101345.13;5058222;28;47017;-96
2021/07/11 06:37:30;;;;;;;;;4.75;4.00;;;;;18.12;73.20;101421.00;5060427;28;45543;-96
2021/07/11 06:39:56;;;;;;;;;3.75;3.75;;;;;17.60;72.97;101347.59;5063772;28;45262;-94
2021/07/11 06:42:22;;;;;;;;;3.00;3.00;;;;;17.51;72.96;101332.94;5085541;27;44797;-96
2021/07/11 06:44:47;;;;;;;;;4.00;4.00;;;;;18.20;72.67;101462.00;5085148;27;46788;-96
2021/07/11 06:47:16;;;;;;;;;5.00;5.00;;;;;17.73;72.99;101394.41;5062505;28;44710;-96
2021/07/11 06:49:42;;;;;;;;;4.75;4.75;;;;;17.74;72.90;101393.41;5058127;28;45326;-96
2021/07/11 06:52:15;;;;;;;;;2.25;2.00;;;;;18.24;73.39;101482.47;5052121;28;45413;-95
2021/07/11 06:54:41;;;;;;;;;3.50;3.50;;;;;17.80;73.52;101413.78;5045967;28;46675;-95
2021/07/11 06:57:17;;;;;;;;;;;;;;;;;;;;;
2021/07/11 06:59:43;;;;;;;;;3.00;3.00;;;;;17.43;72.52;101347.16;5041573;28;69141;-96
2021/07/11 07:02:09;;;;;;;;;5.00;3.50;;;;;17.79;72.83;101407.47;5040096;28;45372;-96
2021/07/11 07:04:34;;;;;;;;;2.25;2.25;;;;;17.54;73.25;101371.53;5056238;28;46627;-96
2021/07/11 07:07:00;;;;;;;;;3.00;3.00;;;;;17.94;73.04;101421.59;5039673;28;45433;-95
2021/07/11 07:09:25;;;;;;;;;3.75;2.50;;;;;17.95;72.66;101423.31;5041191;28;45588;-96
2021/07/11 07:11:51;;;;;;;;;3.00;3.00;;;;;17.40;72.24;101331.13;5059440;28;45512;-95
2021/07/11 07:14:16;;;;;;;;;2.25;2.25;;;;;17.65;72.42;101375.19;5059340;28;46883;-96
2021/07/11 07:16:42;;;;;;;;;2.50;2.50;;;;;17.40;72.33;101348.25;5070004;28;45204;-95
2021/07/11 07:19:08;;;;;;;;;3.25;1.50;;;;;17.92;72.36;101426.31;5079655;28;45301;-95
2021/07/11 07:21:33;;;;;;;;;7.00;3.25;;;;;18.11;72.68;101465.50;5079964;28;45543;-95
2021/07/11 07:23:59;;;;;;;;;8.75;8.00;;;;;17.66;72.91;101376.91;5062047;28;46784;-95
2021/07/11 07:26:24;;;;;;;;;4.00;4.00;;;;;18.37;72.56;101495.03;5058681;28;45637;-94
2021/07/11 07:28:50;;;;;;;;;4.00;4.00;;;;;17.47;72.27;101343.16;5059145;28;45418;-95
2021/07/11 07:31:16;;;;;;;;;4.50;3.00;;;;;17.49;72.45;101343.91;5059149;28;45267;-95
2021/07/11 07:33:41;;;;;;;;;4.50;4.50;;;;;18.05;72.90;101438.84;5058197;28;47772;-95
2021/07/11 07:36:07;;;;;;;;;3.00;3.00;;;;;18.13;72.39;101439.94;5075500;28;45457;-96
2021/07/11 07:38:32;;;;;;;;;4.00;3.00;;;;;17.59;72.14;101344.00;5075596;28;46096;-96
2021/07/11 07:40:58;;;;;;;;;3.00;3.00;;;;;17.74;72.30;101378.97;5059751;28;45444;-96
2021/07/11 07:43:24;;;;;;;;;4.00;3.50;;;;;18.23;72.27;101458.16;5038360;28;46728;-95
2021/07/11 07:45:49;;;;;;;;;4.25;3.00;;;;;18.22;72.05;101462.72;5039250;28;45407;-96
2021/07/11 07:48:15;;;;;;;;;3.00;3.00;;;;;17.56;72.02;101355.09;5054375;28;45368;-94
2021/07/11 07:50:41;;;;;;;;;3.00;3.00;;;;;17.58;72.00;101344.97;5055247;28;45537;-95
2021/07/11 07:53:07;;;;;;;;;3.75;3.75;;;;;18.04;72.26;101424.41;5038367;28;47481;-95
2021/07/11 07:55:34;;;;;;;;;3.00;3.00;;;;;17.97;72.41;101415.91;5048260;28;45239;-94
2021/07/11 07:58:01;;;;;;;;;3.25;3.25;;;;;18.48;72.30;101497.66;5060654;28;45196;-96
2021/07/11 08:00:27;;;;;;;;;5.50;4.00;;;;;17.74;71.68;101368.13;5060691;28;45477;-95
2021/07/11 08:02:53;;;;;;;;;3.75;2.75;;;;;18.26;72.12;101452.44;5061572;28;47117;-95
2021/07/11 08:05:20;;;;;;;;;3.75;3.75;;;;;18.24;72.31;101449.84;5062157;28;45325;-96
2021/07/11 08:07:45;;;;;;;;;5.00;5.00;;;;;17.69;71.90;101355.78;5079031;28;45266;-94
2021/07/11 08:10:15;;;;;;;;;5.50;3.50;;;;;17.81;71.44;101381.03;5062552;28;45262;-95
2021/07/11 08:12:41;;;;;;;;;3.75;3.75;;;;;17.67;71.27;101351.47;5062206;28;47902;-95
2021/07/11 08:15:09;;;;;;;;;4.75;4.75;;;;;18.32;72.07;101471.81;5062673;28;45542;-96
2021/07/11 08:17:36;;;;;;;;;5.00;5.00;;;;;17.73;71.73;101369.09;5071223;28;44769;-94
2021/07/11 08:20:05;;;;;;;;;4.00;4.00;;;;;17.68;71.73;101343.19;5100312;28;44753;-95
2021/07/11 08:22:32;;;;;;;;;7.25;4.00;;;;;17.82;71.77;101377.31;5084491;27;46875;-95
2021/07/11 08:24:57;;;;;;;;;5.00;5.00;;;;;18.52;71.37;101476.50;5099521;27;45113;-94
2021/07/11 08:27:24;;;;;;;;;8.00;6.50;;;;;17.73;71.53;101336.50;5088414;27;45400;-95
2021/07/11 08:29:51;;;;;;;;;4.75;4.75;;;;;18.05;71.91;101388.06;5059677;28;45494;-96
2021/07/11 08:32:18;;;;;;;;;5.50;5.50;;;;;18.35;72.28;101408.16;5063214;28;48009;-96
2021/07/11 08:34:43;;;;;;;;;9.25;7.00;;;;;18.59;71.25;101440.47;5063194;28;45581;-96
2021/07/11 08:37:12;;;;;;;;;9.00;7.50;;;;;18.11;72.06;101348.63;5064042;28;45529;-95
2021/07/11 08:39:38;;;;;;;;;9.00;9.00;;;;;18.19;71.26;101345.25;5082154;28;45447;-95
2021/07/11 08:42:08;;;;;;;;;8.00;7.00;;;;;19.06;70.53;101464.47;5064068;28;46191;-95
2021/07/11 08:44:37;;;;;;;;;7.00;7.00;;;;;18.51;70.78;101342.41;5063508;28;45570;-94
2021/07/11 08:47:06;;;;;;;;;9.00;7.50;;;;;18.84;70.43;101364.00;5082571;28;45483;-96
2021/07/11 08:49:32;;;;;;;;;10.50;10.50;;;;;18.71;69.71;101302.53;5078599;28;45291;-95
2021/07/11 08:52:00;;;;;;;;;10.50;7.75;;;;;19.01;69.59;101318.94;5074435;28;46647;-96
2021/07/11 08:54:26;;;;;;;;;7.25;7.25;;;;;19.36;68.79;101333.88;5062136;28;45591;-95
2021/07/11 08:56:59;;;;;;;;;5.00;5.00;;;;;19.91;68.27;101395.09;5057605;28;45420;-93
2021/07/11 08:59:27;;;;;;;;;8.00;7.00;;;;;19.67;68.16;101341.88;5057164;28;45269;-96
2021/07/11 09:01:56;;;;;;;;;7.75;7.00;;;;;20.32;67.75;101420.25;5058100;28;47615;-96
2021/07/11 09:04:22;;;;;;;;;7.50;5.25;;;;;20.10;67.44;101386.84;5060720;28;45456;-96
2021/07/11 09:06:58;;;;;;;;;8.75;6.75;;;;;19.69;67.29;101310.75;5061988;28;45338;-95
2021/07/11 09:09:34;;;;;;;;;5.25;5.25;;;;;19.83;66.89;101331.22;5059407;28;45527;-95
2021/07/11 09:12:03;;;;;;;;;9.75;9.00;;;;;20.31;67.08;101380.34;5059325;28;47645;-95
2021/07/11 09:14:32;;;;;;;;;5.50;5.50;;;;;20.22;66.39;101343.09;5075741;28;45418;-96
2021/07/11 09:17:02;;;;;;;;;10.75;8.25;;;;;20.38;65.86;101347.91;5058825;28;45238;-95
2021/07/11 09:19:38;;;;;;;;;6.00;5.00;;;;;20.83;65.73;101422.69;5058952;28;45246;-96
2021/07/11 09:22:11;;;;;;;;;7.00;7.00;;;;;20.36;65.45;101347.19;5057123;28;47015;-95
2021/07/11 09:24:45;;;;;;;;;7.25;6.75;;;;;20.64;65.85;101429.94;5056626;28;45344;-96
2021/07/11 09:27:14;;;;;;;;;7.00;7.00;;;;;19.95;65.36;101337.41;5073870;28;45474;-95
2021/07/11 09:29:42;;;;;;;;;6.50;5.25;;;;;20.38;66.17;101427.88;5057508;28;45641;-96
2021/07/11 09:32:20;;;;;;;;;7.75;7.50;;;;;20.01;66.36;101382.28;5077909;28;47999;-94
2021/07/11 09:34:46;;;;;;;;;4.25;4.25;;;;;19.64;65.80;101340.28;5059333;28;45179;-96
2021/07/11 09:37:16;;;;;;;;;10.00;8.00;;;;;20.06;66.02;101418.16;5057463;28;45365;-94
2021/07/11 09:40:01;;;;;;;;;6.25;5.75;;;;;19.61;66.93;101337.84;5058223;28;45175;-96
2021/07/11 09:42:34;;;;;;;;;5.50;5.25;;;;;20.59;66.23;101467.69;5064637;28;47049;-96
2021/07/11 09:45:07;;;;;;;;;6.25;5.25;;;;;19.71;66.32;101321.50;5064329;28;45392;-95
2021/07/11 09:47:33;;;;;;;;;6.00;5.00;;;;;19.98;66.19;101391.63;5064459;28;44792;-96
2021/07/11 09:50:25;;;;;;;;;5.25;5.25;;;;;19.56;66.33;101322.94;5064920;28;45301;-96
2021/07/11 09:52:57;;;;;;;;;5.50;5.50;;;;;20.37;66.85;101419.81;5056085;28;45302;-94
2021/07/11 09:55:29;;;;;;;;;8.00;8.00;;;;;20.32;66.46;101394.84;5065900;28;45316;-96
2021/07/11 09:58:03;;;;;;;;;13.00;11.75;;;;;20.73;66.55;101453.56;5077305;28;45403;-96
2021/07/11 10:00:41;;;;;;;;;6.00;6.00;;;;;20.07;64.67;101301.81;5077412;28;44906;-96
2021/07/11 10:03:18;;;;;;;;;19.25;17.75;;;;;20.75;63.53;101407.94;5083537;28;47239;-95
2021/07/11 10:05:46;;;;;;;;;8.50;7.00;;;;;20.10;64.19;101326.88;5102441;27;45285;-95
2021/07/11 10:08:12;;;;;;;;;8.00;6.50;;;;;20.05;65.09;101320.16;5085242;28;45494;-95
2021/07/11 10:10:44;;;;;;;;;13.00;11.00;;;;;21.13;64.39;101475.28;5088159;28;45407;-95
2021/07/11 10:13:10;;;;;;;;;5.00;5.00;;;;;20.44;64.93;101317.31;5087185;28;47221;-95
2021/07/11 10:15:40;;;;;;;;;5.25;5.25;;;;;20.68;64.55;101313.16;5094161;28;45184;-95
2021/07/11 10:18:08;;;;;;;;;6.25;6.25;;;;;21.17;63.25;101392.03;5120581;27;44736;-95
2021/07/11 10:20:54;;;;;;;;;;;;;;;;;;;;;
2021/07/11 10:23:33;;;;;;;;;22.50;17.75;;;;;20.51;64.02;101333.94;5086094;28;74482;-95
2021/07/11 10:26:02;;;;;;;;;7.75;7.75;;;;;21.16;62.82;101442.19;5063548;28;45425;-95
2021/07/11 10:28:30;;;;;;;;;8.75;8.50;;;;;20.40;63.40;101314.00;5036155;28;45283;-94
2021/07/11 10:31:25;;;;;;;;;5.75;5.50;;;;;20.28;64.16;101318.81;5040832;28;45351;-94
2021/07/11 10:33:57;;;;;;;;;6.75;4.25;;;;;20.57;63.96;101361.47;5067753;28;45317;-94
2021/07/11 10:36:49;;;;;;;;;5.25;4.25;;;;;20.25;64.55;101308.19;5082339;28;45318;-94
2021/07/11 10:39:17;;;;;;;;;4.00;4.00;;;;;20.31;63.49;101301.28;5096213;27;45203;-95
2021/07/11 10:41:53;;;;;;;;;4.00;4.00;;;;;20.54;63.47;101330.88;5081152;28;46375;-96
2021/07/11 10:44:26;;;;;;;;;5.50;5.50;;;;;20.24;64.20;101270.19;5098776;27;47224;-93
2021/07/11 10:47:02;;;;;;;;;7.25;6.50;;;;;20.52;64.23;101298.31;5080829;28;45464;-95
2021/07/11 10:49:35;;;;;;;;;6.75;6.25;;;;;20.80;64.04;101309.22;5081411;28;45349;-95
2021/07/11 10:52:04;;;;;;;;;5.75;5.75;;;;;21.41;63.30;101394.19;5082556;28;45403;-96
2021/07/11 10:54:51;;;;;;;;;5.00;5.00;;;;;21.75;62.73;101441.84;5085287;27;47257;-95
2021/07/11 10:57:37;;;;;;;;;5.50;5.50;;;;;21.16;62.02;101361.16;5082825;28;45542;-95
2021/07/11 11:00:12;;;;;;;;;6.25;5.25;;;;;21.65;63.21;101431.84;5087709;27;45491;-96
2021/07/11 11:02:47;;;;;;;;;4.50;4.50;;;;;20.79;62.00;101295.75;5089869;27;44795;-95
2021/07/11 11:05:30;;;;;;;;;;;;;;;;;;;;;
2021/07/11 11:08:25;;;;;;;;;7.00;5.50;;;;;20.68;62.02;101303.09;5107418;27;72155;-96
2021/07/11 11:10:56;;;;;;;;;4.50;3.25;;;;;21.46;62.20;101442.88;5107231;27;44789;-95
2021/07/11 11:13:28;;;;;;;;;5.50;5.00;;;;;20.70;62.62;101322.06;5092657;27;44801;-95
2021/07/11 11:15:59;;;;;;;;;3.00;3.00;;;;;20.55;62.92;101283.50;5101762;27;47000;-95
2021/07/11 11:18:31;;;;;;;;;5.00;5.00;;;;;21.17;60.67;101389.31;5081215;28;45508;-96
2021/07/11 11:21:01;;;;;;;;;8.00;6.75;;;;;20.46;62.24;101288.00;5082012;28;45274;-96
2021/07/11 11:23:45;;;;;;;;;4.50;4.50;;;;;21.29;61.53;101415.38;5082102;28;45489;-96
2021/07/11 11:26:29;;;;;;;;;6.00;6.00;;;;;20.47;62.24;101299.78;5075057;27;47255;-96
2021/07/11 11:28:56;;;;;;;;;5.00;4.50;;;;;20.99;61.89;101383.84;5084235;28;45281;-95
2021/07/11 11:31:29;;;;;;;;;3.25;3.25;;;;;20.45;61.15;101303.50;5081827;28;45575;-94
2021/07/11 11:34:25;;;;;;;;;4.00;3.75;;;;;21.26;62.38;101428.50;5081667;28;45369;-96
2021/07/11 11:36:56;;;;;;;;;3.00;3.00;;;;;20.86;60.34;101365.06;5080770;28;46838;-96
2021/07/11 11:39:37;;;;;;;;;3.25;3.00;;;;;20.72;59.68;101339.97;5077939;28;45685;-95